sensor_id;sensor_type;location;lat;lon;timestamp;temperature;humidity
14097;DHT22;7125;48.106;11.544;2023-05-10T00:01:41;12.90;99.90
14097;DHT22;7125;48.106;11.544;2023-05-10T00:04:08;12.90;99.90
14097;DHT22;7125;48.106;11.544;2023-05-10T00:06:35;12.90;99.90
14097;DHT22;7125;48.106;11.544;2023-05-10T00:09:05;12.90;99.90
14097;DHT22;7125;48.106;11.544;2023-05-10T00:11:33;12.90;99.90
14097;DHT22;7125;48.106;11.544;2023-05-10T00:14:01;12.90;99.90
14097;DHT22;7125;48.106;11.544;2023-05-10T00:16:30;12.90;99.90
14097;DHT22;7125;48.106;11.544;2023-05-10T00:18:57;12.90;99.90
14097;DHT22;7125;48.106;11.544;2023-05-10T00:21:24;12.90;99.90
14097;DHT22;7125;48.106;11.544;2023-05-10T00:23:55;12.90;99.90
14097;DHT22;7125;48.106;11.544;2023-05-10T00:26:22;12.90;99.90
14097;DHT22;7125;48.106;11.544;2023-05-10T00:28:52;12.80;99.90
14097;DHT22;7125;48.106;11.544;2023-05-10T00:31:21;12.90;99.90
14097;DHT22;7125;48.106;11.544;2023-05-10T00:33:48;12.90;99.90
14097;DHT22;7125;48.106;11.544;2023-05-10T00:36:17;12.90;99.90
14097;DHT22;7125;48.106;11.544;2023-05-10T00:38:46;12.80;99.90
14097;DHT22;7125;48.106;11.544;2023-05-10T00:41:13;12.80;99.90
14097;DHT22;7125;48.106;11.544;2023-05-10T00:43:41;12.80;99.90
14097;DHT22;7125;48.106;11.544;2023-05-10T00:46:09;12.80;99.90
14097;DHT22;7125;48.106;11.544;2023-05-10T00:48:38;12.80;99.90
14097;DHT22;7125;48.106;11.544;2023-05-10T00:51:05;12.70;99.90
14097;DHT22;7125;48.106;11.544;2023-05-10T00:53:34;12.70;99.90
14097;DHT22;7125;48.106;11.544;2023-05-10T00:56:03;12.70;99.90
14097;DHT22;7125;48.106;11.544;2023-05-10T00:58:31;12.70;99.90
14097;DHT22;7125;48.106;11.544;2023-05-10T01:00:58;12.70;99.90
14097;DHT22;7125;48.106;11.544;2023-05-10T01:03:28;12.70;99.90
14097;DHT22;7125;48.106;11.544;2023-05-10T01:05:59;12.70;99.90
14097;DHT22;7125;48.106;11.544;2023-05-10T01:08:29;12.70;99.90
14097;DHT22;7125;48.106;11.544;2023-05-10T01:10:57;12.70;99.90
14097;DHT22;7125;48.106;11.544;2023-05-10T01:13:31;12.60;99.90
14097;DHT22;7125;48.106;11.544;2023-05-10T01:15:59;12.70;99.90
14097;DHT22;7125;48.106;11.544;2023-05-10T01:18:28;12.70;99.90
14097;DHT22;7125;48.106;11.544;2023-05-10T01:21:07;12.70;99.90
14097;DHT22;7125;48.106;11.544;2023-05-10T01:23:54;12.60;99.90
14097;DHT22;7125;48.106;11.544;2023-05-10T01:32:31;12.60;99.90
14097;DHT22;7125;48.106;11.544;2023-05-10T01:35:02;12.60;99.90
14097;DHT22;7125;48.106;11.544;2023-05-10T01:37:37;12.50;99.90
14097;DHT22;7125;48.106;11.544;2023-05-10T01:40:13;12.60;99.90
14097;DHT22;7125;48.106;11.544;2023-05-10T01:42:49;12.50;99.90
14097;DHT22;7125;48.106;11.544;2023-05-10T01:45:24;12.50;99.90
14097;DHT22;7125;48.106;11.544;2023-05-10T01:48:03;12.50;99.90
14097;DHT22;7125;48.106;11.544;2023-05-10T01:50:38;12.50;99.90
14097;DHT22;7125;48.106;11.544;2023-05-10T01:53:09;12.40;99.90
14097;DHT22;7125;48.106;11.544;2023-05-10T01:55:43;12.40;99.90
14097;DHT22;7125;48.106;11.544;2023-05-10T01:58:27;12.40;99.90
14097;DHT22;7125;48.106;11.544;2023-05-10T02:00:55;12.40;99.90
14097;DHT22;7125;48.106;11.544;2023-05-10T02:03:27;12.40;99.90
14097;DHT22;7125;48.106;11.544;2023-05-10T02:05:55;12.40;99.90
14097;DHT22;7125;48.106;11.544;2023-05-10T02:08:24;12.40;99.90
14097;DHT22;7125;48.106;11.544;2023-05-10T02:10:54;12.40;99.90
14097;DHT22;7125;48.106;11.544;2023-05-10T02:13:23;12.40;99.90
14097;DHT22;7125;48.106;11.544;2023-05-10T02:15:55;12.40;99.90
14097;DHT22;7125;48.106;11.544;2023-05-10T02:18:24;12.40;99.90
14097;DHT22;7125;48.106;11.544;2023-05-10T02:20:58;12.40;99.90
14097;DHT22;7125;48.106;11.544;2023-05-10T02:23:26;12.40;99.90
14097;DHT22;7125;48.106;11.544;2023-05-10T02:25:57;12.40;99.90
14097;DHT22;7125;48.106;11.544;2023-05-10T02:28:25;12.40;99.90
14097;DHT22;7125;48.106;11.544;2023-05-10T02:30:55;12.40;99.90
14097;DHT22;7125;48.106;11.544;2023-05-10T02:33:24;12.30;99.90
14097;DHT22;7125;48.106;11.544;2023-05-10T02:35:52;12.40;99.90
14097;DHT22;7125;48.106;11.544;2023-05-10T02:38:22;12.40;99.90
14097;DHT22;7125;48.106;11.544;2023-05-10T02:40:51;12.40;99.90
14097;DHT22;7125;48.106;11.544;2023-05-10T02:43:23;12.40;99.90
14097;DHT22;7125;48.106;11.544;2023-05-10T02:45:51;12.40;99.90
14097;DHT22;7125;48.106;11.544;2023-05-10T02:48:18;12.40;99.90
14097;DHT22;7125;48.106;11.544;2023-05-10T02:50:46;12.40;99.90
14097;DHT22;7125;48.106;11.544;2023-05-10T02:53:21;12.40;99.90
14097;DHT22;7125;48.106;11.544;2023-05-10T02:55:52;12.40;99.90
14097;DHT22;7125;48.106;11.544;2023-05-10T02:58:21;12.40;99.90
14097;DHT22;7125;48.106;11.544;2023-05-10T03:00:48;12.40;99.90
14097;DHT22;7125;48.106;11.544;2023-05-10T03:03:16;12.40;99.90
14097;DHT22;7125;48.106;11.544;2023-05-10T03:05:43;12.30;99.90
14097;DHT22;7125;48.106;11.544;2023-05-10T03:08:10;12.40;99.90
14097;DHT22;7125;48.106;11.544;2023-05-10T03:10:45;12.40;99.90
14097;DHT22;7125;48.106;11.544;2023-05-10T03:13:26;12.30;99.90
14097;DHT22;7125;48.106;11.544;2023-05-10T03:16:05;12.30;99.90
14097;DHT22;7125;48.106;11.544;2023-05-10T03:18:42;12.40;99.90
14097;DHT22;7125;48.106;11.544;2023-05-10T03:21:11;12.30;99.90
14097;DHT22;7125;48.106;11.544;2023-05-10T03:23:43;12.40;99.90
14097;DHT22;7125;48.106;11.544;2023-05-10T03:26:18;12.40;99.90
14097;DHT22;7125;48.106;11.544;2023-05-10T03:28:48;12.30;99.90
14097;DHT22;7125;48.106;11.544;2023-05-10T03:31:16;12.30;99.90
14097;DHT22;7125;48.106;11.544;2023-05-10T03:33:46;12.30;99.90
14097;DHT22;7125;48.106;11.544;2023-05-10T03:36:16;12.30;99.90
14097;DHT22;7125;48.106;11.544;2023-05-10T03:38:43;12.30;99.90
14097;DHT22;7125;48.106;11.544;2023-05-10T03:41:11;12.30;99.90
14097;DHT22;7125;48.106;11.544;2023-05-10T03:43:40;12.30;99.90
14097;DHT22;7125;48.106;11.544;2023-05-10T03:46:07;12.30;99.90
14097;DHT22;7125;48.106;11.544;2023-05-10T03:48:34;12.30;99.90
14097;DHT22;7125;48.106;11.544;2023-05-10T03:51:03;12.30;99.90
14097;DHT22;7125;48.106;11.544;2023-05-10T03:53:30;12.30;99.90
14097;DHT22;7125;48.106;11.544;2023-05-10T03:55:57;12.30;99.90
14097;DHT22;7125;48.106;11.544;2023-05-10T03:58:25;12.20;99.90
14097;DHT22;7125;48.106;11.544;2023-05-10T04:00:53;12.20;99.90
14097;DHT22;7125;48.106;11.544;2023-05-10T04:03:20;12.20;99.90
14097;DHT22;7125;48.106;11.544;2023-05-10T04:05:48;12.20;99.90
14097;DHT22;7125;48.106;11.544;2023-05-10T04:08:15;12.20;99.90
14097;DHT22;7125;48.106;11.544;2023-05-10T04:10:43;12.30;99.90
14097;DHT22;7125;48.106;11.544;2023-05-10T04:13:10;12.30;99.90
14097;DHT22;7125;48.106;11.544;2023-05-10T04:15:37;12.30;99.90
14097;DHT22;7125;48.106;11.544;2023-05-10T04:18:05;12.20;99.90
14097;DHT22;7125;48.106;11.544;2023-05-10T04:20:32;12.20;99.90
14097;DHT22;7125;48.106;11.544;2023-05-10T04:23:00;12.30;99.90
14097;DHT22;7125;48.106;11.544;2023-05-10T04:25:27;12.20;99.90
14097;DHT22;7125;48.106;11.544;2023-05-10T04:27:53;12.20;99.90
14097;DHT22;7125;48.106;11.544;2023-05-10T04:30:20;12.20;99.90
14097;DHT22;7125;48.106;11.544;2023-05-10T04:32:47;12.30;99.90
14097;DHT22;7125;48.106;11.544;2023-05-10T04:35:16;12.30;99.90
14097;DHT22;7125;48.106;11.544;2023-05-10T04:37:43;12.30;99.90
14097;DHT22;7125;48.106;11.544;2023-05-10T04:40:11;12.30;99.90
14097;DHT22;7125;48.106;11.544;2023-05-10T04:42:39;12.30;99.90
14097;DHT22;7125;48.106;11.544;2023-05-10T04:45:09;12.30;99.90
14097;DHT22;7125;48.106;11.544;2023-05-10T04:47:36;12.30;99.90
14097;DHT22;7125;48.106;11.544;2023-05-10T04:50:04;12.30;99.90
14097;DHT22;7125;48.106;11.544;2023-05-10T04:52:34;12.30;99.90
14097;DHT22;7125;48.106;11.544;2023-05-10T04:55:02;12.30;99.90
14097;DHT22;7125;48.106;11.544;2023-05-10T04:57:28;12.30;99.90
14097;DHT22;7125;48.106;11.544;2023-05-10T04:59:55;12.20;99.90
14097;DHT22;7125;48.106;11.544;2023-05-10T05:02:22;12.20;99.90
14097;DHT22;7125;48.106;11.544;2023-05-10T05:08:13;12.10;99.90
14097;DHT22;7125;48.106;11.544;2023-05-10T05:10:41;12.10;99.90
14097;DHT22;7125;48.106;11.544;2023-05-10T05:13:08;12.10;99.90
14097;DHT22;7125;48.106;11.544;2023-05-10T05:15:35;12.00;99.90
14097;DHT22;7125;48.106;11.544;2023-05-10T05:18:02;12.00;99.90
14097;DHT22;7125;48.106;11.544;2023-05-10T05:20:32;12.00;99.90
14097;DHT22;7125;48.106;11.544;2023-05-10T05:22:59;12.00;99.90
14097;DHT22;7125;48.106;11.544;2023-05-10T05:25:28;11.90;99.90
14097;DHT22;7125;48.106;11.544;2023-05-10T05:28:04;11.90;99.90
14097;DHT22;7125;48.106;11.544;2023-05-10T05:30:33;11.90;99.90
14097;DHT22;7125;48.106;11.544;2023-05-10T05:32:59;11.90;99.90
14097;DHT22;7125;48.106;11.544;2023-05-10T05:35:29;11.90;99.90
14097;DHT22;7125;48.106;11.544;2023-05-10T05:38:02;11.80;99.90
14097;DHT22;7125;48.106;11.544;2023-05-10T05:40:45;11.80;99.90
14097;DHT22;7125;48.106;11.544;2023-05-10T05:43:19;11.80;99.90
14097;DHT22;7125;48.106;11.544;2023-05-10T05:45:46;11.80;99.90
14097;DHT22;7125;48.106;11.544;2023-05-10T05:48:13;11.80;99.90
14097;DHT22;7125;48.106;11.544;2023-05-10T05:50:40;11.70;99.90
14097;DHT22;7125;48.106;11.544;2023-05-10T05:53:08;11.60;99.90
14097;DHT22;7125;48.106;11.544;2023-05-10T05:55:38;11.60;99.90
14097;DHT22;7125;48.106;11.544;2023-05-10T05:58:06;11.50;99.90
14097;DHT22;7125;48.106;11.544;2023-05-10T06:00:34;11.60;99.90
14097;DHT22;7125;48.106;11.544;2023-05-10T06:03:01;11.60;99.90
14097;DHT22;7125;48.106;11.544;2023-05-10T06:05:31;11.60;99.90
14097;DHT22;7125;48.106;11.544;2023-05-10T06:07:59;11.60;99.90
14097;DHT22;7125;48.106;11.544;2023-05-10T06:10:26;11.60;99.90
14097;DHT22;7125;48.106;11.544;2023-05-10T06:12:53;11.70;99.90
14097;DHT22;7125;48.106;11.544;2023-05-10T06:15:24;11.70;99.90
14097;DHT22;7125;48.106;11.544;2023-05-10T06:17:51;11.70;99.90
14097;DHT22;7125;48.106;11.544;2023-05-10T06:20:18;11.80;99.90
14097;DHT22;7125;48.106;11.544;2023-05-10T06:22:45;11.80;99.90
14097;DHT22;7125;48.106;11.544;2023-05-10T06:25:12;11.90;99.90
14097;DHT22;7125;48.106;11.544;2023-05-10T06:27:40;11.80;99.90
14097;DHT22;7125;48.106;11.544;2023-05-10T06:30:08;11.90;99.90
14097;DHT22;7125;48.106;11.544;2023-05-10T06:32:36;11.90;99.90
14097;DHT22;7125;48.106;11.544;2023-05-10T06:35:04;11.90;99.90
14097;DHT22;7125;48.106;11.544;2023-05-10T06:37:31;11.90;99.90
14097;DHT22;7125;48.106;11.544;2023-05-10T06:39:58;12.00;99.90
14097;DHT22;7125;48.106;11.544;2023-05-10T06:42:26;12.00;99.90
14097;DHT22;7125;48.106;11.544;2023-05-10T06:44:53;12.10;99.90
14097;DHT22;7125;48.106;11.544;2023-05-10T06:47:19;12.20;99.90
14097;DHT22;7125;48.106;11.544;2023-05-10T06:49:48;12.30;99.90
14097;DHT22;7125;48.106;11.544;2023-05-10T06:52:15;12.40;99.90
14097;DHT22;7125;48.106;11.544;2023-05-10T06:54:45;12.50;99.90
14097;DHT22;7125;48.106;11.544;2023-05-10T06:57:12;12.60;99.90
14097;DHT22;7125;48.106;11.544;2023-05-10T06:59:39;12.60;99.90
14097;DHT22;7125;48.106;11.544;2023-05-10T07:02:06;12.60;99.90
14097;DHT22;7125;48.106;11.544;2023-05-10T07:04:33;12.60;99.90
14097;DHT22;7125;48.106;11.544;2023-05-10T07:07:02;12.60;99.90
14097;DHT22;7125;48.106;11.544;2023-05-10T07:09:29;12.70;99.90
14097;DHT22;7125;48.106;11.544;2023-05-10T07:11:56;12.70;99.90
14097;DHT22;7125;48.106;11.544;2023-05-10T07:14:23;12.80;99.90
14097;DHT22;7125;48.106;11.544;2023-05-10T07:16:50;12.80;99.90
14097;DHT22;7125;48.106;11.544;2023-05-10T07:19:19;12.80;99.90
14097;DHT22;7125;48.106;11.544;2023-05-10T07:21:46;12.90;99.90
14097;DHT22;7125;48.106;11.544;2023-05-10T07:24:15;13.00;99.90
14097;DHT22;7125;48.106;11.544;2023-05-10T07:26:44;13.10;99.90
14097;DHT22;7125;48.106;11.544;2023-05-10T07:29:11;13.20;99.90
14097;DHT22;7125;48.106;11.544;2023-05-10T07:31:38;13.20;99.90
14097;DHT22;7125;48.106;11.544;2023-05-10T07:34:07;13.20;99.90
14097;DHT22;7125;48.106;11.544;2023-05-10T07:36:34;13.20;99.90
14097;DHT22;7125;48.106;11.544;2023-05-10T07:39:01;13.20;99.90
14097;DHT22;7125;48.106;11.544;2023-05-10T07:41:30;13.40;99.90
14097;DHT22;7125;48.106;11.544;2023-05-10T07:43:57;13.50;99.90
14097;DHT22;7125;48.106;11.544;2023-05-10T07:46:24;13.50;99.90
14097;DHT22;7125;48.106;11.544;2023-05-10T07:48:51;13.60;99.90
14097;DHT22;7125;48.106;11.544;2023-05-10T07:51:21;13.60;99.90
14097;DHT22;7125;48.106;11.544;2023-05-10T07:53:49;13.80;99.90
14097;DHT22;7125;48.106;11.544;2023-05-10T07:56:22;13.80;99.90
14097;DHT22;7125;48.106;11.544;2023-05-10T07:58:53;13.80;99.90
14097;DHT22;7125;48.106;11.544;2023-05-10T08:01:20;13.90;99.90
14097;DHT22;7125;48.106;11.544;2023-05-10T08:03:47;13.90;99.90
14097;DHT22;7125;48.106;11.544;2023-05-10T08:08:55;14.10;99.90
14097;DHT22;7125;48.106;11.544;2023-05-10T08:11:22;14.10;99.90
14097;DHT22;7125;48.106;11.544;2023-05-10T08:13:53;14.20;99.90
14097;DHT22;7125;48.106;11.544;2023-05-10T08:16:20;14.20;99.90
14097;DHT22;7125;48.106;11.544;2023-05-10T08:18:48;14.10;99.90
14097;DHT22;7125;48.106;11.544;2023-05-10T08:21:18;14.10;99.90
14097;DHT22;7125;48.106;11.544;2023-05-10T08:23:46;14.00;99.90
14097;DHT22;7125;48.106;11.544;2023-05-10T08:26:15;13.90;99.90
14097;DHT22;7125;48.106;11.544;2023-05-10T08:28:42;13.90;99.90
14097;DHT22;7125;48.106;11.544;2023-05-10T08:31:12;13.90;99.90
14097;DHT22;7125;48.106;11.544;2023-05-10T08:33:40;13.80;99.90
14097;DHT22;7125;48.106;11.544;2023-05-10T08:36:07;13.60;99.90
14097;DHT22;7125;48.106;11.544;2023-05-10T08:38:35;13.50;99.90
14097;DHT22;7125;48.106;11.544;2023-05-10T08:41:04;13.40;99.90
14097;DHT22;7125;48.106;11.544;2023-05-10T08:43:37;13.40;99.90
14097;DHT22;7125;48.106;11.544;2023-05-10T08:46:07;13.30;99.90
14097;DHT22;7125;48.106;11.544;2023-05-10T08:48:38;13.30;99.90
14097;DHT22;7125;48.106;11.544;2023-05-10T08:51:06;13.30;99.90
14097;DHT22;7125;48.106;11.544;2023-05-10T08:53:36;13.30;99.90
14097;DHT22;7125;48.106;11.544;2023-05-10T08:56:09;13.40;99.90
14097;DHT22;7125;48.106;11.544;2023-05-10T08:58:38;13.40;99.90
14097;DHT22;7125;48.106;11.544;2023-05-10T09:01:07;13.30;99.90
14097;DHT22;7125;48.106;11.544;2023-05-10T09:03:39;13.30;99.90
14097;DHT22;7125;48.106;11.544;2023-05-10T09:06:08;13.20;99.90
14097;DHT22;7125;48.106;11.544;2023-05-10T09:08:36;13.20;99.90
14097;DHT22;7125;48.106;11.544;2023-05-10T09:11:05;13.30;99.90
14097;DHT22;7125;48.106;11.544;2023-05-10T09:13:35;13.40;99.90
14097;DHT22;7125;48.106;11.544;2023-05-10T09:16:03;13.40;99.90
14097;DHT22;7125;48.106;11.544;2023-05-10T09:18:31;13.30;99.90
14097;DHT22;7125;48.106;11.544;2023-05-10T09:21:00;13.30;99.90
14097;DHT22;7125;48.106;11.544;2023-05-10T09:23:27;13.30;99.90
14097;DHT22;7125;48.106;11.544;2023-05-10T09:26:04;13.30;99.90
14097;DHT22;7125;48.106;11.544;2023-05-10T09:28:32;13.30;99.90
14097;DHT22;7125;48.106;11.544;2023-05-10T09:31:01;13.30;99.90
14097;DHT22;7125;48.106;11.544;2023-05-10T09:33:29;13.30;99.90
14097;DHT22;7125;48.106;11.544;2023-05-10T09:36:12;13.30;99.90
14097;DHT22;7125;48.106;11.544;2023-05-10T09:38:46;13.50;99.90
14097;DHT22;7125;48.106;11.544;2023-05-10T09:41:18;13.70;99.90
14097;DHT22;7125;48.106;11.544;2023-05-10T09:43:46;13.90;99.90
14097;DHT22;7125;48.106;11.544;2023-05-10T09:46:14;14.00;99.90
14097;DHT22;7125;48.106;11.544;2023-05-10T09:48:43;14.00;99.90
14097;DHT22;7125;48.106;11.544;2023-05-10T09:51:18;14.10;99.90
14097;DHT22;7125;48.106;11.544;2023-05-10T09:53:46;14.20;99.90
14097;DHT22;7125;48.106;11.544;2023-05-10T09:56:32;14.30;99.90
14097;DHT22;7125;48.106;11.544;2023-05-10T09:59:03;14.40;99.90
14097;DHT22;7125;48.106;11.544;2023-05-10T10:01:30;14.50;99.90
14097;DHT22;7125;48.106;11.544;2023-05-10T10:03:58;14.70;99.90
14097;DHT22;7125;48.106;11.544;2023-05-10T10:06:35;14.70;99.90
14097;DHT22;7125;48.106;11.544;2023-05-10T10:09:04;14.90;99.90
14097;DHT22;7125;48.106;11.544;2023-05-10T10:11:33;15.10;99.90
14097;DHT22;7125;48.106;11.544;2023-05-10T10:14:01;15.10;99.90
14097;DHT22;7125;48.106;11.544;2023-05-10T10:16:29;15.20;99.90
14097;DHT22;7125;48.106;11.544;2023-05-10T10:18:57;15.20;99.90
14097;DHT22;7125;48.106;11.544;2023-05-10T10:21:24;15.00;99.90
14097;DHT22;7125;48.106;11.544;2023-05-10T10:23:53;15.00;99.90
14097;DHT22;7125;48.106;11.544;2023-05-10T10:26:22;15.10;99.90
14097;DHT22;7125;48.106;11.544;2023-05-10T10:29:00;15.10;99.90
14097;DHT22;7125;48.106;11.544;2023-05-10T10:31:36;15.30;99.90
14097;DHT22;7125;48.106;11.544;2023-05-10T10:34:08;15.50;99.90
14097;DHT22;7125;48.106;11.544;2023-05-10T10:36:44;15.70;99.90
14097;DHT22;7125;48.106;11.544;2023-05-10T10:39:16;15.90;99.90
14097;DHT22;7125;48.106;11.544;2023-05-10T10:41:50;16.10;99.90
14097;DHT22;7125;48.106;11.544;2023-05-10T10:44:26;16.20;99.90
14097;DHT22;7125;48.106;11.544;2023-05-10T10:47:05;16.20;99.90
14097;DHT22;7125;48.106;11.544;2023-05-10T10:49:43;16.20;99.90
14097;DHT22;7125;48.106;11.544;2023-05-10T10:52:21;16.00;99.90
14097;DHT22;7125;48.106;11.544;2023-05-10T10:54:58;15.90;99.90
14097;DHT22;7125;48.106;11.544;2023-05-10T11:03:04;15.30;99.90
14097;DHT22;7125;48.106;11.544;2023-05-10T11:08:17;14.60;99.90
14097;DHT22;7125;48.106;11.544;2023-05-10T11:11:02;14.20;99.90
14097;DHT22;7125;48.106;11.544;2023-05-10T11:13:33;13.70;99.90
14097;DHT22;7125;48.106;11.544;2023-05-10T11:16:17;13.50;99.90
14097;DHT22;7125;48.106;11.544;2023-05-10T11:19:00;13.30;99.90
14097;DHT22;7125;48.106;11.544;2023-05-10T11:21:29;13.20;99.90
14097;DHT22;7125;48.106;11.544;2023-05-10T11:23:58;13.10;99.90
14097;DHT22;7125;48.106;11.544;2023-05-10T11:26:32;13.10;99.90
14097;DHT22;7125;48.106;11.544;2023-05-10T11:29:00;13.00;99.90
14097;DHT22;7125;48.106;11.544;2023-05-10T11:31:29;12.90;99.90
14097;DHT22;7125;48.106;11.544;2023-05-10T11:33:58;12.90;99.90
14097;DHT22;7125;48.106;11.544;2023-05-10T11:36:26;12.80;99.90
14097;DHT22;7125;48.106;11.544;2023-05-10T11:38:55;12.70;99.90
14097;DHT22;7125;48.106;11.544;2023-05-10T11:41:24;12.60;99.90
14097;DHT22;7125;48.106;11.544;2023-05-10T11:43:54;12.40;99.90
14097;DHT22;7125;48.106;11.544;2023-05-10T11:46:23;12.40;99.90
14097;DHT22;7125;48.106;11.544;2023-05-10T11:48:52;12.40;99.90
14097;DHT22;7125;48.106;11.544;2023-05-10T11:51:20;12.30;99.90
14097;DHT22;7125;48.106;11.544;2023-05-10T11:53:49;12.30;99.90
14097;DHT22;7125;48.106;11.544;2023-05-10T11:56:17;12.30;99.90
14097;DHT22;7125;48.106;11.544;2023-05-10T11:58:44;12.20;99.90
14097;DHT22;7125;48.106;11.544;2023-05-10T12:01:14;12.10;99.90
14097;DHT22;7125;48.106;11.544;2023-05-10T12:03:41;12.00;99.90
14097;DHT22;7125;48.106;11.544;2023-05-10T12:06:09;11.90;99.90
14097;DHT22;7125;48.106;11.544;2023-05-10T12:08:44;11.90;99.90
14097;DHT22;7125;48.106;11.544;2023-05-10T12:11:12;11.80;99.90
14097;DHT22;7125;48.106;11.544;2023-05-10T12:13:42;11.70;99.90
14097;DHT22;7125;48.106;11.544;2023-05-10T12:16:18;11.70;99.90
14097;DHT22;7125;48.106;11.544;2023-05-10T12:18:48;11.70;99.90
14097;DHT22;7125;48.106;11.544;2023-05-10T12:21:17;11.70;99.90
14097;DHT22;7125;48.106;11.544;2023-05-10T12:23:45;11.70;99.90
14097;DHT22;7125;48.106;11.544;2023-05-10T12:26:13;11.70;99.90
14097;DHT22;7125;48.106;11.544;2023-05-10T12:28:43;11.80;99.90
14097;DHT22;7125;48.106;11.544;2023-05-10T12:31:12;11.80;99.90
14097;DHT22;7125;48.106;11.544;2023-05-10T12:33:43;11.70;99.90
14097;DHT22;7125;48.106;11.544;2023-05-10T12:36:14;11.80;99.90
14097;DHT22;7125;48.106;11.544;2023-05-10T12:38:44;11.80;99.90
14097;DHT22;7125;48.106;11.544;2023-05-10T12:41:14;11.80;99.90
14097;DHT22;7125;48.106;11.544;2023-05-10T12:43:43;11.80;99.90
14097;DHT22;7125;48.106;11.544;2023-05-10T12:46:12;11.90;99.90
14097;DHT22;7125;48.106;11.544;2023-05-10T12:48:43;12.00;99.90
14097;DHT22;7125;48.106;11.544;2023-05-10T12:51:15;12.00;99.90
14097;DHT22;7125;48.106;11.544;2023-05-10T12:53:44;12.00;99.90
14097;DHT22;7125;48.106;11.544;2023-05-10T12:56:13;12.00;99.90
14097;DHT22;7125;48.106;11.544;2023-05-10T12:58:41;12.00;99.90
14097;DHT22;7125;48.106;11.544;2023-05-10T13:01:13;12.00;99.90
14097;DHT22;7125;48.106;11.544;2023-05-10T13:03:43;12.00;99.90
14097;DHT22;7125;48.106;11.544;2023-05-10T13:06:10;11.90;99.90
14097;DHT22;7125;48.106;11.544;2023-05-10T13:08:38;11.90;99.90
14097;DHT22;7125;48.106;11.544;2023-05-10T13:11:06;11.90;99.90
14097;DHT22;7125;48.106;11.544;2023-05-10T13:13:33;12.00;99.90
14097;DHT22;7125;48.106;11.544;2023-05-10T13:16:01;12.00;99.90
14097;DHT22;7125;48.106;11.544;2023-05-10T13:18:28;12.00;99.90
14097;DHT22;7125;48.106;11.544;2023-05-10T13:20:58;12.10;99.90
14097;DHT22;7125;48.106;11.544;2023-05-10T13:23:25;12.10;99.90
14097;DHT22;7125;48.106;11.544;2023-05-10T13:25:53;12.10;99.90
14097;DHT22;7125;48.106;11.544;2023-05-10T13:28:21;12.10;99.90
14097;DHT22;7125;48.106;11.544;2023-05-10T13:30:48;12.20;99.90
14097;DHT22;7125;48.106;11.544;2023-05-10T13:33:16;12.10;99.90
14097;DHT22;7125;48.106;11.544;2023-05-10T13:35:44;12.10;99.90
14097;DHT22;7125;48.106;11.544;2023-05-10T13:38:13;12.00;99.90
14097;DHT22;7125;48.106;11.544;2023-05-10T13:40:41;12.10;99.90
14097;DHT22;7125;48.106;11.544;2023-05-10T13:43:09;12.00;99.90
14097;DHT22;7125;48.106;11.544;2023-05-10T13:45:36;12.00;99.90
14097;DHT22;7125;48.106;11.544;2023-05-10T13:48:03;11.90;99.90
14097;DHT22;7125;48.106;11.544;2023-05-10T13:50:30;11.90;99.90
14097;DHT22;7125;48.106;11.544;2023-05-10T13:52:57;11.90;99.90
14097;DHT22;7125;48.106;11.544;2023-05-10T13:55:27;11.90;99.90
14097;DHT22;7125;48.106;11.544;2023-05-10T13:57:54;11.90;99.90
14097;DHT22;7125;48.106;11.544;2023-05-10T14:00:22;11.90;99.90
14097;DHT22;7125;48.106;11.544;2023-05-10T14:02:51;11.90;99.90
14097;DHT22;7125;48.106;11.544;2023-05-10T14:05:19;11.80;99.90
14097;DHT22;7125;48.106;11.544;2023-05-10T14:07:47;11.90;99.90
14097;DHT22;7125;48.106;11.544;2023-05-10T14:10:16;11.90;99.90
14097;DHT22;7125;48.106;11.544;2023-05-10T14:12:44;11.90;99.90
14097;DHT22;7125;48.106;11.544;2023-05-10T14:15:12;11.90;99.90
14097;DHT22;7125;48.106;11.544;2023-05-10T14:17:39;11.80;99.90
14097;DHT22;7125;48.106;11.544;2023-05-10T14:20:07;11.90;99.90
14097;DHT22;7125;48.106;11.544;2023-05-10T14:22:35;11.80;99.90
14097;DHT22;7125;48.106;11.544;2023-05-10T14:25:04;11.80;99.90
14097;DHT22;7125;48.106;11.544;2023-05-10T14:27:32;11.90;99.90
14097;DHT22;7125;48.106;11.544;2023-05-10T14:30:01;11.90;99.90
14097;DHT22;7125;48.106;11.544;2023-05-10T14:32:29;12.00;99.90
14097;DHT22;7125;48.106;11.544;2023-05-10T14:34:57;12.00;99.90
14097;DHT22;7125;48.106;11.544;2023-05-10T14:37:25;12.10;99.90
14097;DHT22;7125;48.106;11.544;2023-05-10T14:39:52;12.00;99.90
14097;DHT22;7125;48.106;11.544;2023-05-10T14:42:20;12.00;99.90
14097;DHT22;7125;48.106;11.544;2023-05-10T14:44:46;12.00;99.90
14097;DHT22;7125;48.106;11.544;2023-05-10T14:47:16;12.00;99.90
14097;DHT22;7125;48.106;11.544;2023-05-10T14:49:43;11.90;99.90
14097;DHT22;7125;48.106;11.544;2023-05-10T14:52:11;11.90;99.90
14097;DHT22;7125;48.106;11.544;2023-05-10T14:54:39;11.90;99.90
14097;DHT22;7125;48.106;11.544;2023-05-10T14:57:07;11.80;99.90
14097;DHT22;7125;48.106;11.544;2023-05-10T14:59:34;11.80;99.90
14097;DHT22;7125;48.106;11.544;2023-05-10T15:02:01;11.80;99.90
14097;DHT22;7125;48.106;11.544;2023-05-10T15:04:34;11.80;99.90
14097;DHT22;7125;48.106;11.544;2023-05-10T15:07:02;11.80;99.90
14097;DHT22;7125;48.106;11.544;2023-05-10T15:09:31;11.70;99.90
14097;DHT22;7125;48.106;11.544;2023-05-10T15:11:57;11.70;99.90
14097;DHT22;7125;48.106;11.544;2023-05-10T15:14:25;11.70;99.90
14097;DHT22;7125;48.106;11.544;2023-05-10T15:16:52;11.60;99.90
14097;DHT22;7125;48.106;11.544;2023-05-10T15:19:20;11.60;99.90
14097;DHT22;7125;48.106;11.544;2023-05-10T15:21:54;11.70;99.90
14097;DHT22;7125;48.106;11.544;2023-05-10T15:24:23;11.70;99.90
14097;DHT22;7125;48.106;11.544;2023-05-10T15:26:50;11.70;99.90
14097;DHT22;7125;48.106;11.544;2023-05-10T15:29:18;11.60;99.90
14097;DHT22;7125;48.106;11.544;2023-05-10T15:31:48;11.60;99.90
14097;DHT22;7125;48.106;11.544;2023-05-10T15:34:18;11.50;99.90
14097;DHT22;7125;48.106;11.544;2023-05-10T15:36:45;11.50;99.90
14097;DHT22;7125;48.106;11.544;2023-05-10T15:42:15;11.40;99.90
14097;DHT22;7125;48.106;11.544;2023-05-10T15:44:55;11.40;99.90
14097;DHT22;7125;48.106;11.544;2023-05-10T15:47:36;11.30;99.90
14097;DHT22;7125;48.106;11.544;2023-05-10T15:50:06;11.30;99.90
14097;DHT22;7125;48.106;11.544;2023-05-10T15:52:49;11.30;99.90
14097;DHT22;7125;48.106;11.544;2023-05-10T15:55:20;11.20;99.90
14097;DHT22;7125;48.106;11.544;2023-05-10T16:01:05;11.20;99.90
14097;DHT22;7125;48.106;11.544;2023-05-10T16:03:33;11.20;99.90
14097;DHT22;7125;48.106;11.544;2023-05-10T16:06:00;11.10;99.90
14097;DHT22;7125;48.106;11.544;2023-05-10T16:08:29;11.10;99.90
14097;DHT22;7125;48.106;11.544;2023-05-10T16:11:01;11.10;99.90